This is the latest recevied weather packets stored in our database for station/object GW1561. If no packets are shown the sender has not sent any weather packets the latest 10 day(s).
| Time | Temp. | Humidity | Pressure | Rain* | Wind** | Luminosity | Snow |
|---|---|---|---|---|---|---|---|
| 1777861667 | 8.33° C | 80% | 984 hPa | 0 mm | - | - | - |
| 1777860233 | 8.89° C | 76% | 984 hPa | 0 mm | - | - | - |
| 1777859131 | 8.89° C | 77% | 984.4 hPa | 0 mm | - | - | - |
| 1777855531 | 11.11° C | 69% | 983.7 hPa | 0 mm | - | - | - |
| 1777854817 | 11.67° C | 67% | 983.7 hPa | 0 mm | - | - | - |
| 1777847952 | 15.56° C | 41% | 984 hPa | 0 mm | - | - | - |
| 1777847631 | 15.56° C | 40% | 984 hPa | 0 mm | - | - | - |
| 1777847247 | 15.56° C | 39% | 984.4 hPa | 0 mm | - | - | - |
| 1777845814 | 15.56° C | 36% | 984.4 hPa | 0 mm | - | - | - |
| 1777843670 | 16.11° C | 38% | 984.4 hPa | 0 mm | - | - | - |
| 1777842943 | 16.11° C | 37% | 984.4 hPa | 0 mm | - | - | - |
| 1777840754 | 15.56° C | 35% | 984.7 hPa | 0 mm | - | - | - |
| 1777837175 | 15.56° C | 36% | 985.7 hPa | 0 mm | - | - | - |
| 1777829958 | 13.89° C | 39% | 987.4 hPa | 0 mm | - | - | - |
| 1777828175 | 15° C | 39% | 987.8 hPa | 0 mm | - | - | - |
| 1777826371 | 13.33° C | 46% | 988.4 hPa | 0 mm | - | - | - |
| 1777825640 | 13.33° C | 47% | 988.4 hPa | 0 mm | - | - | - |
| 1777821317 | 12.22° C | 45% | 989.1 hPa | 0 mm | - | - | - |
| 1777819884 | 11.11° C | 49% | 989.1 hPa | 0 mm | - | - | - |
| 1777819548 | 11.67° C | 49% | 989.1 hPa | 0 mm | - | - | - |
| 1777819152 | 11.11° C | 54% | 989.1 hPa | 0 mm | - | - | - |
| 1777816650 | 8.89° C | 65% | 989.5 hPa | 0 mm | - | - | - |
| 1777815222 | 6.67° C | 74% | 989.1 hPa | 0 mm | - | - | - |
| 1777814854 | 5.56° C | 81% | 989.5 hPa | 0 mm | - | - | - |
| 1777813793 | 3.33° C | 97% | 989.5 hPa | 0 mm | - | - | - |
* Rain since midnight (hover to see other rain measurements)
** Current wind speed in m/s (hover to see current wind gust speed)